»·PEaware :: DAL4452 KPDX-KSEA

DAL4452 :: KPDX-KSEA

FLIGHT INFORMATION

Flight Status: Arrived
Operator:
Delta Air Lines
More flights by this operator :: More flights under this callsign
Pilot: Eric M. (20804)
Aircraft: AIRBUS A319
(A319)
More flights by this aircraft type
Origin: KPDX Portland Intl
United States
Destination: KSEA Seattle-Tacoma Intl
United States
More flights between these airports :: More routes between these airports
Route: COUGA KRIEG HAWKZ7
File this flight plan on PilotEdge
Remarks: RMK / SIMBRIEF
Altitude:
(Current/Filed)
22,000ft
Speed:
(Current/Filed)
408kts
Departed: 09-Feb-20 01:31 PM
Arrived: 09-Feb-20 02:12 PM
Distance/Time
Traveled:
112nm/0:41
Distance/Time
To Go:
Arrived

Flight Plot

Page will automatically refresh every two minutes.

Flight plan parsing failed; only flown route is shown


Map Options




Map Legend


Flown Route
Filed Route
Departure Airport
Arrival Airport
Navaid (VOR, NDB)
Fix

Horizontal Profiles

Position Reports

Time Latitude Longitude Heading Altitude Ground
Speed
09-Feb-20 13:09 45.589643 -122.590158 257 25ft 0kts
09-Feb-20 13:10 45.589643 -122.590158 257 25ft 0kts
09-Feb-20 13:11 45.589643 -122.590158 257 25ft 0kts
09-Feb-20 13:12 45.589643 -122.590158 257 25ft 0kts
09-Feb-20 13:13 45.589643 -122.590158 257 25ft 0kts
09-Feb-20 13:14 45.589643 -122.590158 257 25ft 0kts
09-Feb-20 13:15 45.589643 -122.590158 257 25ft 0kts
09-Feb-20 13:16 45.589643 -122.590158 257 25ft 0kts
09-Feb-20 13:17 45.589643 -122.590158 257 25ft 0kts
09-Feb-20 13:18 45.589643 -122.590158 257 25ft 0kts
09-Feb-20 13:19 45.589643 -122.590158 257 25ft 0kts
09-Feb-20 13:20 45.589643 -122.590158 257 25ft 0kts
09-Feb-20 13:21 45.589842 -122.588860 257 25ft 3kts
09-Feb-20 13:22 45.589847 -122.588829 257 25ft 0kts
09-Feb-20 13:23 45.589847 -122.588829 257 25ft 0kts
09-Feb-20 13:24 45.590032 -122.589565 301 25ft 6kts
09-Feb-20 13:25 45.590511 -122.590591 305 25ft 1kts
09-Feb-20 13:26 45.591583 -122.593304 292 25ft 13kts
09-Feb-20 13:27 45.593786 -122.597974 351 28ft 15kts
09-Feb-20 13:28 45.594394 -122.597656 41 28ft 0kts
09-Feb-20 13:29 45.594431 -122.597609 41 28ft 2kts
09-Feb-20 13:30 45.587100 -122.575778 120 43ft 171kts
09-Feb-20 13:31 45.570629 -122.516630 124 3000ft 163kts
09-Feb-20 13:32 45.547843 -122.466774 114 4728ft 204kts
09-Feb-20 13:33 45.570783 -122.426364 334 6267ft 237kts
09-Feb-20 13:34 45.599765 -122.520058 290 9767ft 265kts
09-Feb-20 13:35 45.664761 -122.584304 352 12356ft 311kts
09-Feb-20 13:36 45.752568 -122.602646 351 14971ft 344kts
09-Feb-20 13:37 45.846677 -122.623309 351 15911ft 330kts
09-Feb-20 13:38 45.938940 -122.643800 351 18700ft 340kts
09-Feb-20 13:39 46.036435 -122.665533 351 21108ft 353kts
09-Feb-20 13:40 46.137667 -122.687042 352 21979ft 358kts
09-Feb-20 13:41 46.233595 -122.705664 352 21982ft 358kts
09-Feb-20 13:42 46.233595 -122.705664 352 21982ft 358kts
09-Feb-20 13:43 46.233595 -122.705664 352 21982ft 358kts
09-Feb-20 13:44 46.234805 -122.705902 352 21982ft 358kts
09-Feb-20 13:45 46.335235 -122.722968 357 21982ft 357kts
09-Feb-20 13:46 46.434868 -122.726814 358 20205ft 347kts
09-Feb-20 13:47 46.531270 -122.730331 358 17883ft 336kts
09-Feb-20 13:48 46.624827 -122.733736 358 15645ft 326kts
09-Feb-20 13:49 46.716612 -122.737065 358 13462ft 316kts
09-Feb-20 13:50 46.799600 -122.721554 32 12112ft 294kts
09-Feb-20 13:51 46.862618 -122.644377 40 10632ft 284kts
09-Feb-20 13:52 46.918579 -122.565587 41 9754ft 262kts
09-Feb-20 13:53 46.982560 -122.511503 14 8383ft 264kts
09-Feb-20 13:54 47.054235 -122.479306 4 8170ft 265kts
09-Feb-20 13:55 47.124661 -122.485701 353 9005ft 266kts
09-Feb-20 13:56 47.199704 -122.478786 2 9012ft 268kts
09-Feb-20 13:57 47.274814 -122.467797 2 8961ft 268kts
09-Feb-20 13:58 47.346762 -122.456853 1 8955ft 245kts
09-Feb-20 13:59 47.415802 -122.455997 357 8959ft 244kts
09-Feb-20 14:00 47.483218 -122.456002 357 8306ft 228kts
09-Feb-20 14:01 47.544494 -122.450063 9 7310ft 219kts
09-Feb-20 14:02 47.604732 -122.436835 5 6153ft 215kts
09-Feb-20 14:03 47.664194 -122.424466 6 5008ft 212kts
09-Feb-20 14:04 47.715065 -122.393098 74 4031ft 207kts
09-Feb-20 14:05 47.692821 -122.320970 146 4028ft 215kts
09-Feb-20 14:06 47.638431 -122.306608 180 3876ft 196kts
09-Feb-20 14:07 47.582525 -122.306731 180 2834ft 199kts
09-Feb-20 14:08 47.528310 -122.307159 180 1787ft 176kts
09-Feb-20 14:09 47.486803 -122.307557 180 980ft 135kts
09-Feb-20 14:10 47.450293 -122.307886 179 479ft 104kts
09-Feb-20 14:11 47.439111 -122.306805 69 478ft 2kts
09-Feb-20 14:12 47.439535 -122.305992 35 478ft 9kts
09-Feb-20 14:13 47.439878 -122.302006 145 478ft 6kts

Navigation Log

Ident Type
Flight plan parsing failed, navigation log unavailable